Time;durP1;ratioP1;P1;durP2;ratioP2;P2;SDS_P1;SDS_P2;PMS_P1;PMS_P2;Temp;Humidity;BMP_temperature;BMP_pressure;BME280_temperature;BME280_humidity;BME280_pressure;Samples;Min_cycle;Max_cycle;Signal;HPM_P1;HPM_P2
2022/03/30 00:00:56;;;;;;;4.10;2.95;;;;;;;17.84;54.24;101206.22;4931154;29;20048;-78
2022/03/30 00:03:24;;;;;;;3.80;2.33;;;;;;;17.64;54.92;101204.31;4930264;29;20047;-77
2022/03/30 00:05:53;;;;;;;3.25;2.40;;;;;;;17.59;55.93;101206.00;4910924;29;20060;-78
2022/03/30 00:08:21;;;;;;;4.25;2.80;;;;;;;17.55;54.66;101210.34;4926057;29;20106;-77
2022/03/30 00:10:50;;;;;;;3.63;2.35;;;;;;;17.54;55.45;101199.84;4924792;29;20052;-76
2022/03/30 00:13:19;;;;;;;5.57;2.40;;;;;;;17.59;56.37;101206.91;4930460;29;20075;-77
2022/03/30 00:15:49;;;;;;;4.13;2.30;;;;;;;17.57;56.77;101211.22;4930880;29;20461;-77
2022/03/30 00:18:18;;;;;;;3.38;2.20;;;;;;;17.55;55.01;101201.63;4930977;29;20060;-79
2022/03/30 00:20:47;;;;;;;3.97;2.40;;;;;;;17.56;54.83;101198.13;4931228;28;20091;-77
2022/03/30 00:23:15;;;;;;;4.47;2.40;;;;;;;17.66;57.15;101199.97;4930667;29;20140;-78
2022/03/30 00:25:44;;;;;;;3.35;1.90;;;;;;;17.49;54.49;101204.19;4933564;29;20151;-78
2022/03/30 00:28:12;;;;;;;3.35;1.85;;;;;;;17.43;54.57;101205.03;4931850;29;20084;-79
2022/03/30 00:30:41;;;;;;;5.50;2.10;;;;;;;17.41;55.44;101200.59;4931112;29;20094;-77
2022/03/30 00:33:11;;;;;;;4.32;2.30;;;;;;;17.43;55.49;101184.09;4930081;29;20087;-77
2022/03/30 00:35:40;;;;;;;3.03;1.90;;;;;;;17.53;56.35;101185.03;4930418;29;20156;-77
2022/03/30 00:38:08;;;;;;;2.75;1.98;;;;;;;17.59;55.58;101183.34;4930649;29;20120;-78
2022/03/30 00:40:37;;;;;;;3.65;1.80;;;;;;;17.63;55.84;101181.59;4931024;29;20047;-77
2022/03/30 00:43:05;;;;;;;4.97;2.10;;;;;;;17.62;56.80;101172.03;4930177;29;20092;-79
2022/03/30 00:45:34;;;;;;;3.20;2.17;;;;;;;17.55;55.01;101178.06;4930502;29;20043;-79
2022/03/30 00:48:02;;;;;;;7.68;2.00;;;;;;;17.48;55.84;101181.50;4930380;29;20541;-77
2022/03/30 00:50:33;;;;;;;2.80;1.90;;;;;;;17.49;55.30;101178.03;4930311;29;20130;-78
2022/03/30 00:53:01;;;;;;;2.30;1.60;;;;;;;17.53;55.20;101177.19;4930254;29;20114;-80
2022/03/30 00:55:30;;;;;;;2.03;1.60;;;;;;;17.54;55.42;101181.53;4931780;29;20055;-75
2022/03/30 00:57:59;;;;;;;2.28;1.45;;;;;;;17.58;54.48;101172.84;4930910;29;20047;-77
2022/03/30 01:00:28;;;;;;;2.65;1.67;;;;;;;17.55;53.87;101178.94;4933941;29;20083;-74
2022/03/30 01:02:56;;;;;;;3.95;1.65;;;;;;;17.38;55.37;101176.22;4931197;29;20048;-75
2022/03/30 01:05:25;;;;;;;2.92;1.60;;;;;;;17.28;55.04;101170.88;4930580;29;20122;-76
2022/03/30 01:07:59;;;;;;;2.38;1.40;;;;;;;17.22;55.92;101179.53;4930101;29;20083;-73
2022/03/30 01:10:28;;;;;;;4.13;1.35;;;;;;;17.27;57.95;101188.31;4929731;29;20659;-73
2022/03/30 01:12:58;;;;;;;3.35;1.50;;;;;;;17.27;55.90;101177.84;4929862;29;20565;-74
2022/03/30 01:15:27;;;;;;;3.05;1.58;;;;;;;17.26;56.11;101180.44;4930888;29;20055;-73
2022/03/30 01:17:56;;;;;;;3.78;1.20;;;;;;;17.21;55.10;101171.69;4931424;29;20044;-73
2022/03/30 01:20:25;;;;;;;3.08;1.27;;;;;;;17.22;56.78;101176.03;4937330;28;20155;-73
2022/03/30 01:22:55;;;;;;;4.03;1.00;;;;;;;17.22;58.44;101169.06;4934227;29;20055;-75
2022/03/30 01:25:24;;;;;;;3.92;1.58;;;;;;;17.16;56.36;101174.25;4933628;29;20054;-75
2022/03/30 01:27:53;;;;;;;2.20;1.15;;;;;;;17.03;56.92;101168.03;4933622;29;20044;-75
2022/03/30 01:33:09;;;;;;;2.80;1.25;;;;;;;16.89;57.41;101172.25;4933210;29;20425;-76
2022/03/30 01:35:38;;;;;;;4.32;1.33;;;;;;;16.87;59.02;101172.22;4933711;29;20084;-76
2022/03/30 01:38:08;;;;;;;3.38;1.27;;;;;;;16.84;58.00;101166.97;4933165;29;20067;-76
2022/03/30 01:40:37;;;;;;;1.50;1.10;;;;;;;16.80;57.89;101165.19;4933666;29;20081;-76
2022/03/30 01:43:05;;;;;;;1.63;1.05;;;;;;;16.77;58.67;101170.38;4932756;29;20056;-75
2022/03/30 01:45:34;;;;;;;3.78;1.30;;;;;;;16.76;57.89;101164.22;4932158;29;20051;-75
2022/03/30 01:48:03;;;;;;;1.85;1.30;;;;;;;16.76;58.89;101168.59;4932220;29;20569;-75
2022/03/30 01:50:33;;;;;;;1.98;1.35;;;;;;;16.74;58.57;101165.09;4932211;29;20059;-76
2022/03/30 01:53:02;;;;;;;1.30;1.02;;;;;;;16.70;59.45;101166.81;4932779;29;20059;-73
2022/03/30 01:55:32;;;;;;;3.42;1.48;;;;;;;16.62;59.87;101171.06;4933910;29;20047;-73
2022/03/30 01:58:01;;;;;;;3.95;1.40;;;;;;;16.49;60.11;101169.16;4933547;29;20050;-74
2022/03/30 02:00:30;;;;;;;4.18;1.50;;;;;;;16.58;60.15;101176.22;4933541;29;20063;-74
2022/03/30 02:02:58;;;;;;;1.73;1.25;;;;;;;16.63;60.07;101172.81;4932251;29;20083;-73
2022/03/30 02:05:28;;;;;;;2.00;1.27;;;;;;;16.64;59.71;101168.47;4933234;29;20111;-73
2022/03/30 02:07:57;;;;;;;2.05;1.10;;;;;;;16.67;59.66;101171.09;4932410;29;20513;-73
2022/03/30 02:10:26;;;;;;;2.20;1.30;;;;;;;16.68;60.75;101167.66;4932550;29;20224;-73
2022/03/30 02:12:58;;;;;;;2.45;1.13;;;;;;;16.63;59.38;101169.31;4933025;29;20052;-73
2022/03/30 02:15:26;;;;;;;1.35;1.10;;;;;;;16.64;59.53;101174.56;4935659;29;20095;-74
2022/03/30 02:17:55;;;;;;;5.38;1.42;;;;;;;16.66;60.34;101167.63;4933190;29;20051;-73
2022/03/30 02:20:23;;;;;;;1.85;1.10;;;;;;;16.68;60.04;101175.50;4933817;28;20062;-73
2022/03/30 02:22:52;;;;;;;3.28;1.20;;;;;;;16.70;59.97;101176.38;4931888;29;20059;-74
2022/03/30 02:25:20;;;;;;;2.90;1.40;;;;;;;16.69;59.89;101185.06;4912429;29;20052;-74
2022/03/30 02:27:49;;;;;;;4.68;1.50;;;;;;;16.68;59.90;101180.72;4913166;29;20140;-75
2022/03/30 02:30:20;;;;;;;3.15;1.67;;;;;;;16.66;59.62;101182.44;4912624;29;20147;-73
2022/03/30 02:32:48;;;;;;;3.50;1.90;;;;;;;16.64;60.43;101186.75;4913391;29;20047;-73
2022/03/30 02:35:18;;;;;;;4.20;2.10;;;;;;;16.63;60.79;101198.03;4913728;29;20052;-74
2022/03/30 02:37:47;;;;;;;4.13;2.00;;;;;;;16.57;58.48;101187.53;4922980;29;20099;-74
2022/03/30 02:40:15;;;;;;;4.95;1.40;;;;;;;16.51;57.86;101186.59;4932489;29;20048;-74
2022/03/30 02:42:44;;;;;;;5.32;1.55;;;;;;;16.48;58.03;101194.41;4934557;29;20075;-74
2022/03/30 02:45:12;;;;;;;3.03;1.50;;;;;;;16.42;57.46;101207.38;4934169;29;20074;-72
2022/03/30 02:50:27;;;;;;;4.15;1.50;;;;;;;16.30;56.42;101205.50;4931413;29;20132;-74
2022/03/30 02:52:56;;;;;;;5.00;1.50;;;;;;;16.20;56.03;101202.75;4931752;29;20044;-74
2022/03/30 02:55:24;;;;;;;2.30;0.90;;;;;;;16.09;55.43;101193.03;4932869;29;20056;-75
2022/03/30 02:57:53;;;;;;;3.00;1.27;;;;;;;16.12;55.89;101213.94;4932117;29;20055;-79
2022/03/30 03:00:21;;;;;;;3.85;1.10;;;;;;;16.07;55.85;101223.44;4932762;29;20111;-79
2022/03/30 03:02:51;;;;;;;3.90;0.85;;;;;;;16.04;55.78;101228.63;4931665;29;20087;-78
2022/03/30 03:05:20;;;;;;;3.38;1.10;;;;;;;16.00;56.66;101237.28;4931697;29;20086;-79
2022/03/30 03:07:48;;;;;;;2.28;0.85;;;;;;;15.98;56.42;101241.59;4931388;29;20048;-79
2022/03/30 03:10:17;;;;;;;3.03;1.13;;;;;;;15.94;56.00;101242.38;4934939;29;20102;-73
2022/03/30 03:12:45;;;;;;;3.65;0.90;;;;;;;15.89;55.51;101234.50;4933318;29;20142;-73
2022/03/30 03:15:14;;;;;;;4.43;1.15;;;;;;;15.84;56.20;101243.13;4932475;29;20083;-72
2022/03/30 03:17:42;;;;;;;3.35;0.60;;;;;;;15.77;55.06;101243.88;4932233;29;20497;-75
2022/03/30 03:20:13;;;;;;;4.38;0.90;;;;;;;15.72;55.83;101245.53;4932379;28;20154;-73
2022/03/30 03:22:42;;;;;;;3.42;0.80;;;;;;;15.64;54.32;101247.97;4930695;29;20526;-73
2022/03/30 03:25:12;;;;;;;2.60;0.80;;;;;;;15.55;53.93;101248.69;4930935;29;20094;-76
2022/03/30 03:27:41;;;;;;;3.38;0.70;;;;;;;15.45;52.02;101254.59;4931599;29;20056;-75
2022/03/30 03:30:10;;;;;;;1.73;0.80;;;;;;;15.36;53.07;101263.16;4931277;29;20094;-77
2022/03/30 03:32:39;;;;;;;4.68;0.88;;;;;;;15.25;52.82;101254.25;4930881;29;20052;-77
2022/03/30 03:35:09;;;;;;;4.00;1.08;;;;;;;15.18;53.12;101258.47;4931716;29;20119;-76
2022/03/30 03:37:39;;;;;;;2.38;0.68;;;;;;;15.11;53.80;101256.59;4930816;29;20051;-75
2022/03/30 03:40:10;;;;;;;1.75;0.55;;;;;;;15.03;53.59;101252.97;4930996;29;20179;-73
2022/03/30 03:42:39;;;;;;;2.58;0.60;;;;;;;14.97;53.98;101256.34;4930106;29;20055;-74
2022/03/30 03:45:09;;;;;;;2.15;0.60;;;;;;;14.94;54.67;101263.22;4931037;29;20060;-74
2022/03/30 03:47:37;;;;;;;2.90;0.70;;;;;;;14.88;54.77;101258.75;4931953;29;20573;-75
2022/03/30 03:50:07;;;;;;;4.57;1.38;;;;;;;14.85;54.14;101274.34;4931139;29;20095;-73
2022/03/30 03:52:35;;;;;;;3.60;1.20;;;;;;;14.81;54.58;101267.31;4931038;29;20099;-74
2022/03/30 03:55:06;;;;;;;3.35;0.98;;;;;;;14.77;55.19;101281.97;4931104;29;20265;-74
2022/03/30 03:57:37;;;;;;;2.65;0.95;;;;;;;14.73;54.91;101280.19;4931582;29;20107;-74
2022/03/30 04:00:08;;;;;;;2.65;1.02;;;;;;;14.73;54.85;101284.47;4931216;29;20051;-72
2022/03/30 04:02:39;;;;;;;4.03;0.68;;;;;;;14.65;56.84;101280.00;4930938;29;20051;-74
2022/03/30 04:05:10;;;;;;;2.17;0.90;;;;;;;14.45;58.38;101289.97;4933660;29;20047;-75
2022/03/30 04:07:39;;;;;;;5.07;1.13;;;;;;;14.23;59.67;101274.72;4931806;29;20059;-74
2022/03/30 04:10:11;;;;;;;3.00;0.88;;;;;;;14.15;59.44;101290.13;4930999;29;20044;-75
2022/03/30 04:12:40;;;;;;;4.25;0.90;;;;;;;14.10;60.05;101291.75;4931104;29;20070;-76
2022/03/30 04:15:10;;;;;;;2.38;0.90;;;;;;;14.04;60.61;101297.72;4930841;29;20795;-76
2022/03/30 04:17:44;;;;;;;4.32;0.90;;;;;;;13.95;60.38;101302.69;4930973;29;20115;-74
2022/03/30 04:20:14;;;;;;;2.53;1.05;;;;;;;13.91;60.14;101312.97;4931369;28;20126;-76
2022/03/30 04:22:43;;;;;;;5.13;1.17;;;;;;;13.72;59.22;101306.41;4892101;29;20187;-77
2022/03/30 04:25:14;;;;;;;1.90;0.88;;;;;;;13.71;59.99;101313.34;4893219;29;20095;-74
2022/03/30 04:27:49;;;;;;;5.15;0.77;;;;;;;13.61;58.96;101314.84;4893977;29;20056;-74
2022/03/30 04:30:18;;;;;;;4.50;0.88;;;;;;;13.54;59.33;101320.72;4893181;29;20056;-74
2022/03/30 04:32:47;;;;;;;3.60;1.30;;;;;;;13.48;60.05;101320.53;4896254;29;20052;-76
2022/03/30 04:35:17;;;;;;;2.33;1.20;;;;;;;13.43;59.81;101327.34;4893845;29;20554;-73
2022/03/30 04:37:45;;;;;;;5.85;1.75;;;;;;;13.35;58.65;101334.06;4893169;29;20056;-74
2022/03/30 04:40:16;;;;;;;1.40;0.80;;;;;;;13.28;56.51;101339.91;4892653;29;20578;-76
2022/03/30 04:42:44;;;;;;;2.70;1.10;;;;;;;13.21;55.96;101341.44;4892197;29;20053;-76
2022/03/30 04:45:13;;;;;;;1.90;0.73;;;;;;;13.03;55.27;101331.41;4892843;29;20080;-75
2022/03/30 04:47:41;;;;;;;4.68;0.73;;;;;;;13.02;56.26;101350.44;4892962;29;20079;-74
2022/03/30 04:50:11;;;;;;;6.80;1.02;;;;;;;12.92;56.54;101358.81;4892506;29;20052;-75
2022/03/30 04:52:40;;;;;;;5.30;0.60;;;;;;;12.81;56.48;101355.88;4893135;29;20524;-76
2022/03/30 04:55:10;;;;;;;2.17;0.60;;;;;;;12.72;56.75;101366.88;4897211;29;20680;-77
2022/03/30 04:57:41;;;;;;;4.30;0.70;;;;;;;12.62;57.43;101366.53;4896905;29;20132;-75
2022/03/30 05:00:12;;;;;;;4.30;0.90;;;;;;;12.53;58.10;101369.75;4898537;29;20056;-79
2022/03/30 05:02:41;;;;;;;4.55;0.65;;;;;;;12.46;58.50;101362.56;4898591;29;20058;-79
2022/03/30 05:05:11;;;;;;;2.53;0.50;;;;;;;12.39;59.17;101369.28;4897897;29;20113;-78
2022/03/30 05:07:40;;;;;;;0.95;0.70;;;;;;;12.30;58.15;101372.47;4897181;29;20052;-79
2022/03/30 05:10:12;;;;;;;1.13;0.57;;;;;;;12.26;58.41;101381.00;4897100;29;20076;-78
2022/03/30 05:12:43;;;;;;;4.30;0.75;;;;;;;12.21;58.76;101387.75;4897546;29;20654;-79
2022/03/30 05:15:12;;;;;;;5.47;0.80;;;;;;;12.14;59.24;101383.19;4897863;29;20499;-79
2022/03/30 05:17:45;;;;;;;4.10;0.60;;;;;;;12.05;59.59;101385.44;4897675;29;20057;-81
2022/03/30 05:20:13;;;;;;;;;;;;;;;12.00;59.29;101403.44;4898167;29;20052;-81
2022/03/30 05:22:42;;;;;;;1.63;0.75;;;;;;;11.93;59.53;101411.84;4933961;28;19973;-81
2022/03/30 05:25:12;;;;;;;10.20;1.05;;;;;;;11.85;58.80;101401.19;4934840;29;20051;-80
2022/03/30 05:27:42;;;;;;;2.70;0.50;;;;;;;11.83;60.18;101412.34;4934393;29;20081;-80
2022/03/30 05:30:12;;;;;;;3.60;0.60;;;;;;;11.80;59.91;101412.25;4934731;29;20051;-77
2022/03/30 05:32:44;;;;;;;3.03;0.52;;;;;;;11.77;59.44;101413.00;4934072;29;20501;-78
2022/03/30 05:35:13;;;;;;;1.92;0.80;;;;;;;11.73;59.77;101413.75;4934742;29;20057;-77
2022/03/30 05:37:42;;;;;;;2.85;0.52;;;;;;;11.67;59.56;101409.22;4934249;29;20113;-79
2022/03/30 05:40:11;;;;;;;2.38;0.63;;;;;;;11.64;60.63;101413.41;4934858;29;20093;-79
2022/03/30 05:42:40;;;;;;;1.27;0.40;;;;;;;11.61;60.69;101423.66;4933978;29;20061;-79
2022/03/30 05:45:11;;;;;;;3.30;0.77;;;;;;;11.57;60.94;101432.16;4933955;29;20063;-77
2022/03/30 05:47:39;;;;;;;2.00;0.52;;;;;;;11.52;61.12;101445.84;4934662;29;20105;-78
2022/03/30 05:50:09;;;;;;;2.65;0.60;;;;;;;11.51;61.07;101453.56;4934811;29;20106;-77
2022/03/30 05:52:37;;;;;;;4.07;0.60;;;;;;;11.48;61.12;101456.91;4934037;29;20051;-76
2022/03/30 05:55:08;;;;;;;3.50;0.63;;;;;;;11.35;61.09;101436.56;4934713;29;20103;-79
2022/03/30 05:57:37;;;;;;;1.50;0.40;;;;;;;11.39;61.04;101453.97;4938023;29;20486;-76
2022/03/30 06:00:08;;;;;;;2.70;0.57;;;;;;;11.36;61.87;101448.69;4935678;29;20079;-77
2022/03/30 06:02:38;;;;;;;8.05;0.70;;;;;;;11.37;61.64;101449.56;4934362;29;20052;-78
2022/03/30 06:05:08;;;;;;;4.82;0.70;;;;;;;11.36;61.59;101451.28;4933128;29;20052;-76
2022/03/30 06:07:37;;;;;;;2.30;0.50;;;;;;;11.33;62.31;101464.09;4934031;29;20050;-76
2022/03/30 06:10:06;;;;;;;3.53;0.60;;;;;;;11.33;62.04;101464.97;4934348;29;20040;-79
2022/03/30 06:12:35;;;;;;;3.00;0.75;;;;;;;11.32;61.60;101462.34;4934121;29;20052;-78
2022/03/30 06:15:04;;;;;;;4.32;0.50;;;;;;;11.29;61.82;101460.53;4934819;29;20553;-78
2022/03/30 06:17:32;;;;;;;1.52;0.40;;;;;;;11.32;61.99;101467.53;4933877;29;20413;-79
2022/03/30 06:20:03;;;;;;;3.20;0.60;;;;;;;11.30;60.93;101469.19;4936183;29;20056;-78
2022/03/30 06:22:32;;;;;;;3.03;0.57;;;;;;;11.25;60.75;101468.13;4938864;28;20068;-79
2022/03/30 06:25:01;;;;;;;1.45;0.38;;;;;;;11.22;60.89;101473.19;4934292;29;20506;-79
2022/03/30 06:27:30;;;;;;;1.67;0.40;;;;;;;11.15;60.11;101468.59;4934612;29;20771;-79
2022/03/30 06:29:59;;;;;;;1.80;0.35;;;;;;;11.15;60.23;101468.59;4933794;29;20047;-78
2022/03/30 06:32:27;;;;;;;2.90;0.38;;;;;;;11.13;60.15;101476.28;4933546;29;20078;-78
2022/03/30 06:34:56;;;;;;;4.00;0.52;;;;;;;11.10;60.70;101484.81;4933247;29;20052;-78
2022/03/30 06:37:26;;;;;;;3.33;0.50;;;;;;;11.01;59.78;101479.28;4933364;29;20051;-78
2022/03/30 06:39:54;;;;;;;3.83;0.60;;;;;;;10.96;61.17;101491.19;4933318;29;20055;-78
2022/03/30 06:42:23;;;;;;;2.30;0.57;;;;;;;10.83;60.82;101483.75;4933282;29;20047;-77
2022/03/30 06:44:52;;;;;;;2.47;0.40;;;;;;;10.68;61.44;101487.50;4932959;29;20059;-77
2022/03/30 06:47:20;;;;;;;5.60;0.75;;;;;;;10.58;63.31;101495.72;4933452;29;20142;-77
2022/03/30 06:49:49;;;;;;;2.10;0.40;;;;;;;10.51;63.82;101491.06;4933053;29;20067;-78
2022/03/30 06:52:17;;;;;;;0.80;0.45;;;;;;;10.47;63.99;101491.78;4932914;29;20055;-77
2022/03/30 06:54:47;;;;;;;4.38;0.75;;;;;;;10.43;63.72;101497.66;4935737;29;20102;-78
2022/03/30 06:57:15;;;;;;;2.63;0.52;;;;;;;10.35;64.96;101491.25;4934094;29;20498;-78
2022/03/30 06:59:44;;;;;;;3.42;0.68;;;;;;;10.29;64.68;101491.03;4934366;29;20048;-79
2022/03/30 07:02:12;;;;;;;3.20;0.73;;;;;;;10.18;65.25;101488.81;4933572;29;20083;-78
2022/03/30 07:04:41;;;;;;;2.08;0.63;;;;;;;10.10;68.39;101500.53;4933025;29;20093;-77
2022/03/30 07:12:41;;;;;;;2.33;0.68;;;;;;;9.81;68.64;101501.84;4932577;29;20066;-79
2022/03/30 07:15:10;;;;;;;2.28;0.80;;;;;;;9.77;67.79;101500.81;4932729;29;20110;-79
2022/03/30 07:17:46;;;;;;;2.13;0.50;;;;;;;9.69;69.04;101522.84;4932879;29;20051;-78
2022/03/30 07:20:15;;;;;;;6.07;1.15;;;;;;;9.63;69.12;101528.63;4933896;29;20080;-79
2022/03/30 07:22:44;;;;;;;1.50;0.57;;;;;;;9.57;70.14;101533.50;4932269;28;20690;-78
2022/03/30 07:25:15;;;;;;;3.92;0.73;;;;;;;9.53;70.57;101544.53;4932428;29;20522;-80
2022/03/30 07:27:45;;;;;;;2.80;0.50;;;;;;;9.52;69.78;101544.44;4933499;29;20083;-78
2022/03/30 07:30:15;;;;;;;1.35;0.60;;;;;;;9.53;71.55;101546.19;4932638;29;20047;-77
2022/03/30 07:32:45;;;;;;;1.90;0.80;;;;;;;9.43;71.42;101550.94;4932195;29;20048;-79
2022/03/30 07:35:16;;;;;;;2.88;0.57;;;;;;;9.37;71.14;101555.84;4932701;29;20047;-77
2022/03/30 07:37:47;;;;;;;6.25;1.02;;;;;;;9.32;72.90;101556.41;4932678;29;20136;-77
2022/03/30 07:40:19;;;;;;;8.55;1.08;;;;;;;9.22;72.44;101557.69;4932305;29;20505;-78
2022/03/30 07:42:48;;;;;;;5.22;0.55;;;;;;;9.19;72.62;101570.47;4931903;29;20181;-79
2022/03/30 07:45:18;;;;;;;1.95;0.75;;;;;;;9.20;72.39;101569.63;4932314;29;20055;-80
2022/03/30 07:47:46;;;;;;;4.43;0.60;;;;;;;9.12;72.76;101558.06;4931482;29;20055;-79
2022/03/30 07:50:15;;;;;;;1.40;0.40;;;;;;;9.15;73.04;101573.69;4931851;29;20090;-79
2022/03/30 07:52:46;;;;;;;2.50;0.60;;;;;;;9.09;73.47;101579.44;4933713;29;20048;-78
2022/03/30 07:55:16;;;;;;;3.55;0.85;;;;;;;9.06;75.75;101579.28;4933566;29;20050;-78
2022/03/30 07:57:45;;;;;;;4.40;0.75;;;;;;;8.98;75.79;101581.50;4932212;29;20597;-78
2022/03/30 08:00:16;;;;;;;4.25;0.95;;;;;;;8.93;75.12;101571.75;4932053;29;20075;-78
2022/03/30 08:02:46;;;;;;;1.23;0.57;;;;;;;8.90;75.61;101585.41;4931903;29;20076;-80
2022/03/30 08:05:15;;;;;;;3.13;0.40;;;;;;;8.91;75.48;101584.59;4931493;29;20510;-79
2022/03/30 08:07:44;;;;;;;4.43;0.85;;;;;;;8.91;74.96;101589.78;4931775;29;20110;-78
2022/03/30 08:10:13;;;;;;;2.15;0.40;;;;;;;8.93;74.50;101606.22;4931873;29;20052;-78
2022/03/30 08:12:44;;;;;;;7.43;0.60;;;;;;;8.89;74.60;101590.50;4932069;29;20141;-77
2022/03/30 08:15:13;;;;;;;2.92;0.63;;;;;;;8.95;73.68;101607.16;4932802;29;20047;-78
2022/03/30 08:17:43;;;;;;;2.78;0.50;;;;;;;8.93;73.96;101608.81;4937009;29;20107;-76
2022/03/30 08:22:25;;;;;;;3.08;0.70;;;;;;;8.88;73.54;101609.38;4933228;29;20127;-76
2022/03/30 08:23:00;;;;;;;2.53;0.57;;;;;;;8.87;74.87;101616.22;4931836;28;20425;-77
2022/03/30 08:25:29;;;;;;;1.77;0.30;;;;;;;8.87;74.71;101618.81;4932034;29;20044;-77
2022/03/30 08:27:59;;;;;;;2.45;1.05;;;;;;;8.85;74.91;101628.16;4931258;29;20048;-77
2022/03/30 08:30:27;;;;;;;3.58;0.82;;;;;;;8.82;74.08;101628.03;4931548;29;20056;-76
2022/03/30 08:32:56;;;;;;;6.88;1.42;;;;;;;8.80;74.31;101638.25;4930683;29;20087;-76
2022/03/30 08:35:25;;;;;;;3.53;1.08;;;;;;;8.76;74.43;101635.44;4931078;29;20142;-76
2022/03/30 08:37:54;;;;;;;3.30;0.60;;;;;;;8.73;75.25;101635.31;4930993;29;20078;-77
2022/03/30 08:40:23;;;;;;;2.15;0.80;;;;;;;8.73;74.69;101641.34;4931329;29;20052;-76
2022/03/30 08:42:52;;;;;;;1.75;0.47;;;;;;;8.70;75.50;101645.44;4931037;29;20051;-77
2022/03/30 08:45:24;;;;;;;1.33;0.57;;;;;;;8.68;76.06;101652.22;4931529;29;20138;-77
2022/03/30 08:47:52;;;;;;;3.72;0.85;;;;;;;8.68;77.17;101657.38;4931377;29;20087;-77
2022/03/30 08:50:21;;;;;;;4.97;0.60;;;;;;;8.69;76.95;101659.16;4931660;29;20048;-77
2022/03/30 08:52:52;;;;;;;2.72;0.50;;;;;;;8.64;77.59;101655.47;4934166;29;20047;-77
2022/03/30 08:55:21;;;;;;;1.17;0.52;;;;;;;8.69;76.83;101664.31;4932483;29;20064;-77
2022/03/30 08:57:49;;;;;;;4.00;0.50;;;;;;;8.62;78.78;101667.41;4931264;29;20086;-77
2022/03/30 09:00:20;;;;;;;2.60;0.68;;;;;;;8.55;80.16;101661.03;4930664;29;20056;-77
2022/03/30 09:02:59;;;;;;;3.78;0.70;;;;;;;8.52;81.40;101661.75;4931015;29;20050;-77
2022/03/30 09:05:29;;;;;;;7.45;0.85;;;;;;;8.41;80.92;101656.81;4930955;29;20201;-77
2022/03/30 09:08:13;;;;;;;3.95;0.90;;;;;;;8.34;81.19;101656.47;4930607;29;20497;-77
2022/03/30 09:10:43;;;;;;;3.28;0.88;;;;;;;8.28;82.10;101665.59;4931097;29;20055;-78
2022/03/30 09:13:14;;;;;;;2.22;0.60;;;;;;;8.23;81.64;101657.59;4930547;29;20143;-77
2022/03/30 09:15:43;;;;;;;3.10;1.27;;;;;;;8.16;83.10;101660.66;4924143;29;20059;-77
2022/03/30 09:18:15;;;;;;;5.85;1.15;;;;;;;8.12;82.76;101650.97;4931235;29;20500;-77
2022/03/30 09:20:46;;;;;;;3.58;0.80;;;;;;;8.11;83.29;101647.53;4930934;29;20055;-77
2022/03/30 09:23:17;;;;;;;2.92;0.82;;;;;;;8.09;85.30;101651.72;4929773;29;20079;-77
2022/03/30 09:25:46;;;;;;;3.05;0.90;;;;;;;8.06;85.12;101642.91;4930553;29;20107;-76
2022/03/30 09:28:18;;;;;;;2.97;0.60;;;;;;;8.13;85.68;101645.91;4930601;29;20532;-77
2022/03/30 09:30:47;;;;;;;3.50;0.60;;;;;;;8.17;85.29;101637.53;4930977;29;20102;-77
2022/03/30 09:33:19;;;;;;;2.88;0.60;;;;;;;8.16;88.67;101637.47;4930729;29;20296;-77
2022/03/30 09:35:48;;;;;;;2.80;0.50;;;;;;;8.18;88.77;101633.28;4930565;29;20142;-77
2022/03/30 09:38:19;;;;;;;2.97;0.75;;;;;;;8.18;88.95;101634.16;4931251;29;20306;-77
2022/03/30 09:40:50;;;;;;;1.10;0.40;;;;;;;8.23;89.89;101634.41;4933812;29;20060;-77
2022/03/30 09:43:23;;;;;;;3.40;0.73;;;;;;;8.31;88.88;101633.09;4934122;29;20545;-77
2022/03/30 09:46:04;;;;;;;2.42;0.93;;;;;;;8.37;88.87;101640.28;4934026;29;20498;-77
2022/03/30 09:48:38;;;;;;;3.92;0.40;;;;;;;8.42;87.82;101630.25;4934475;29;20051;-77
2022/03/30 09:51:08;;;;;;;3.97;0.73;;;;;;;8.44;86.98;101634.66;4938000;29;20059;-77
2022/03/30 09:53:38;;;;;;;2.95;0.60;;;;;;;8.45;88.11;101638.13;4934170;29;20147;-77
2022/03/30 09:56:08;;;;;;;8.63;0.93;;;;;;;8.47;86.84;101645.13;4934021;29;20044;-78
2022/03/30 09:58:38;;;;;;;2.55;1.10;;;;;;;8.52;87.19;101651.44;4933792;29;20082;-77
2022/03/30 10:03:53;;;;;;;1.60;0.68;;;;;;;8.55;87.06;101651.59;4437981;26;20063;-77
2022/03/30 10:06:23;;;;;;;3.60;1.30;;;;;;;8.58;87.78;101654.31;4946635;29;20074;-77
2022/03/30 10:08:53;;;;;;;3.88;0.90;;;;;;;8.58;87.41;101654.31;4951086;29;20106;-77
2022/03/30 10:11:22;;;;;;;6.68;0.70;;;;;;;8.60;87.49;101657.88;4952002;29;20106;-76
2022/03/30 10:13:53;;;;;;;6.03;1.20;;;;;;;8.59;89.51;101653.53;4952041;29;20412;-77
2022/03/30 10:16:22;;;;;;;10.30;1.13;;;;;;;8.59;88.65;101648.38;4952324;29;20051;-76
2022/03/30 10:18:52;;;;;;;7.72;0.98;;;;;;;8.59;87.96;101645.78;4949789;29;20040;-75
2022/03/30 10:21:26;;;;;;;2.80;0.90;;;;;;;8.62;88.28;101646.75;4952348;29;20051;-76
2022/03/30 10:24:19;;;;;;;1.20;0.57;;;;;;;8.64;87.64;101642.56;4952042;29;20087;-75
2022/03/30 10:27:06;;;;;;;4.22;1.02;;;;;;;8.69;87.47;101638.53;4952738;29;20090;-77
2022/03/30 10:29:37;;;;;;;3.63;1.30;;;;;;;8.71;87.10;101647.22;4933659;29;20560;-76
2022/03/30 10:32:14;;;;;;;3.65;0.98;;;;;;;8.73;87.55;101640.47;4944743;29;20043;-76
2022/03/30 10:34:52;;;;;;;8.15;0.73;;;;;;;8.76;86.48;101648.34;4952765;29;20047;-77
2022/03/30 10:37:28;;;;;;;7.07;0.90;;;;;;;8.81;86.10;101644.28;4951702;29;20059;-76
2022/03/30 10:39:59;;;;;;;7.65;0.93;;;;;;;8.83;85.60;101642.69;4952334;29;20062;-77
2022/03/30 10:42:27;;;;;;;5.65;0.63;;;;;;;8.81;85.05;101640.00;4952282;29;20134;-76
2022/03/30 10:44:58;;;;;;;8.93;1.48;;;;;;;8.83;85.15;101650.44;4952722;29;20082;-76
2022/03/30 10:47:29;;;;;;;2.67;1.00;;;;;;;8.83;82.58;101642.69;4952720;29;20158;-76
2022/03/30 10:50:02;;;;;;;3.70;0.70;;;;;;;8.86;82.66;101648.00;4952000;28;20047;-76
2022/03/30 10:52:35;;;;;;;;;;;;;;;8.88;82.29;101656.69;4953740;29;20377;-76
2022/03/30 10:55:31;;;;;;;3.75;1.40;;;;;;;8.92;81.50;101653.47;4929656;29;19927;-76
2022/03/30 10:58:02;;;;;;;7.05;0.70;;;;;;;8.93;81.85;101650.09;4907309;29;20056;-76
2022/03/30 11:00:34;;;;;;;2.13;0.52;;;;;;;8.93;82.61;101655.25;4913771;29;20048;-77
2022/03/30 11:03:14;;;;;;;6.30;0.90;;;;;;;8.97;81.99;101657.16;4913792;28;20505;-77
2022/03/30 11:06:00;;;;;;;3.70;0.80;;;;;;;9.02;81.75;101659.97;4916889;29;20051;-76
2022/03/30 11:08:59;;;;;;;4.35;1.73;;;;;;;9.07;82.52;101667.94;4932513;29;20126;-76
2022/03/30 11:11:30;;;;;;;6.50;0.93;;;;;;;9.08;81.92;101665.47;4932085;29;20079;-77
2022/03/30 11:14:26;;;;;;;4.93;0.98;;;;;;;8.99;81.32;101649.50;4932419;29;20128;-77
2022/03/30 11:16:56;;;;;;;5.05;1.00;;;;;;;9.11;80.09;101668.19;4932040;29;20428;-76
2022/03/30 11:19:29;;;;;;;4.30;0.93;;;;;;;9.14;81.02;101670.03;4932548;29;20044;-76
2022/03/30 11:22:10;;;;;;;6.95;1.30;;;;;;;9.11;80.99;101675.03;4932006;29;20110;-76
2022/03/30 11:24:39;;;;;;;10.25;1.25;;;;;;;9.11;81.92;101664.72;4931981;29;20471;-76
2022/03/30 11:27:23;;;;;;;6.88;0.90;;;;;;;9.12;80.08;101667.38;4932524;29;20063;-75
2022/03/30 11:30:13;;;;;;;5.03;1.10;;;;;;;9.10;80.80;101670.72;4931881;29;20131;-73
2022/03/30 11:32:59;;;;;;;2.25;0.60;;;;;;;9.04;80.86;101671.28;4931437;29;20051;-76
2022/03/30 11:35:33;;;;;;;8.63;1.10;;;;;;;9.05;81.26;101674.72;4932041;29;20091;-75
2022/03/30 11:38:22;;;;;;;4.68;1.27;;;;;;;9.06;80.56;101676.53;4932316;29;20075;-77
2022/03/30 11:40:53;;;;;;;2.95;0.93;;;;;;;9.10;80.93;101676.75;4931581;29;20267;-77
2022/03/30 11:43:23;;;;;;;2.45;0.70;;;;;;;9.13;81.29;101683.75;4931007;29;20430;-76
2022/03/30 11:45:52;;;;;;;2.70;0.68;;;;;;;9.06;81.37;101674.81;4930166;29;20043;-75
2022/03/30 11:48:21;;;;;;;4.47;0.95;;;;;;;9.14;80.47;101680.34;4934062;29;20052;-76
2022/03/30 11:50:51;;;;;;;3.65;1.13;;;;;;;9.11;80.81;101669.88;4932073;29;20055;-77
2022/03/30 11:53:24;;;;;;;1.55;0.80;;;;;;;9.22;80.38;101685.09;4931287;29;20060;-77
2022/03/30 11:55:53;;;;;;;;;;;;;;;9.26;79.43;101696.47;4932684;29;20548;-77
2022/03/30 11:58:27;;;;;;;1.77;0.60;;;;;;;9.27;78.88;101690.50;4931518;29;19926;-76